sensor_id;sensor_type;location;lat;lon;timestamp;temperature;humidity
6244;DHT22;3155;49.940;8.450;2022-10-01T00:02:06;6.00;99.90
6244;DHT22;3155;49.940;8.450;2022-10-01T00:04:42;6.10;99.90
6244;DHT22;3155;49.940;8.450;2022-10-01T00:07:09;6.30;99.90
6244;DHT22;3155;49.940;8.450;2022-10-01T00:09:40;6.50;99.90
6244;DHT22;3155;49.940;8.450;2022-10-01T00:12:07;6.60;99.90
6244;DHT22;3155;49.940;8.450;2022-10-01T00:14:34;6.70;99.90
6244;DHT22;3155;49.940;8.450;2022-10-01T00:17:04;6.80;99.90
6244;DHT22;3155;49.940;8.450;2022-10-01T00:19:31;6.80;99.90
6244;DHT22;3155;49.940;8.450;2022-10-01T00:21:57;7.00;99.90
6244;DHT22;3155;49.940;8.450;2022-10-01T00:24:24;7.10;99.90
6244;DHT22;3155;49.940;8.450;2022-10-01T00:26:52;7.10;99.90
6244;DHT22;3155;49.940;8.450;2022-10-01T00:29:22;7.10;99.90
6244;DHT22;3155;49.940;8.450;2022-10-01T00:31:49;7.20;99.90
6244;DHT22;3155;49.940;8.450;2022-10-01T00:34:15;7.20;99.90
6244;DHT22;3155;49.940;8.450;2022-10-01T00:36:42;7.30;99.90
6244;DHT22;3155;49.940;8.450;2022-10-01T00:39:12;7.30;99.90
6244;DHT22;3155;49.940;8.450;2022-10-01T00:41:39;7.30;99.90
6244;DHT22;3155;49.940;8.450;2022-10-01T00:49:30;7.50;99.90
6244;DHT22;3155;49.940;8.450;2022-10-01T00:52:05;7.50;99.90
6244;DHT22;3155;49.940;8.450;2022-10-01T00:54:40;7.50;99.90
6244;DHT22;3155;49.940;8.450;2022-10-01T00:57:13;7.60;99.90
6244;DHT22;3155;49.940;8.450;2022-10-01T00:59:41;7.50;99.90
6244;DHT22;3155;49.940;8.450;2022-10-01T01:02:15;7.60;99.90
6244;DHT22;3155;49.940;8.450;2022-10-01T01:04:41;7.60;99.90
6244;DHT22;3155;49.940;8.450;2022-10-01T01:07:08;7.60;99.90
6244;DHT22;3155;49.940;8.450;2022-10-01T01:09:48;7.60;99.90
6244;DHT22;3155;49.940;8.450;2022-10-01T01:15:29;7.60;99.90
6244;DHT22;3155;49.940;8.450;2022-10-01T01:21:00;7.50;99.90
6244;DHT22;3155;49.940;8.450;2022-10-01T01:26:24;7.40;99.90
6244;DHT22;3155;49.940;8.450;2022-10-01T01:28:58;7.40;99.90
6244;DHT22;3155;49.940;8.450;2022-10-01T01:31:32;7.40;99.90
6244;DHT22;3155;49.940;8.450;2022-10-01T01:34:10;7.40;99.90
6244;DHT22;3155;49.940;8.450;2022-10-01T01:36:42;7.50;99.90
6244;DHT22;3155;49.940;8.450;2022-10-01T01:39:12;7.50;99.90
6244;DHT22;3155;49.940;8.450;2022-10-01T01:41:45;7.50;99.90
6244;DHT22;3155;49.940;8.450;2022-10-01T01:44:20;7.60;99.90
6244;DHT22;3155;49.940;8.450;2022-10-01T01:46:51;7.60;99.90
6244;DHT22;3155;49.940;8.450;2022-10-01T01:49:22;7.60;99.90
6244;DHT22;3155;49.940;8.450;2022-10-01T01:54:24;7.80;99.90
6244;DHT22;3155;49.940;8.450;2022-10-01T01:56:51;7.80;99.90
6244;DHT22;3155;49.940;8.450;2022-10-01T01:59:25;7.90;99.90
6244;DHT22;3155;49.940;8.450;2022-10-01T02:01:52;7.90;99.90
6244;DHT22;3155;49.940;8.450;2022-10-01T02:04:36;7.90;99.90
6244;DHT22;3155;49.940;8.450;2022-10-01T02:07:26;8.00;99.90
6244;DHT22;3155;49.940;8.450;2022-10-01T02:10:01;8.00;99.90
6244;DHT22;3155;49.940;8.450;2022-10-01T02:15:59;8.00;99.90
6244;DHT22;3155;49.940;8.450;2022-10-01T02:18:59;8.00;99.90
6244;DHT22;3155;49.940;8.450;2022-10-01T02:21:49;8.00;99.90
6244;DHT22;3155;49.940;8.450;2022-10-01T02:24:46;8.00;99.90
6244;DHT22;3155;49.940;8.450;2022-10-01T02:27:36;8.00;99.90
6244;DHT22;3155;49.940;8.450;2022-10-01T02:30:06;8.10;99.90
6244;DHT22;3155;49.940;8.450;2022-10-01T02:32:36;8.00;99.90
6244;DHT22;3155;49.940;8.450;2022-10-01T02:35:10;8.00;99.90
6244;DHT22;3155;49.940;8.450;2022-10-01T02:37:39;8.00;99.90
6244;DHT22;3155;49.940;8.450;2022-10-01T02:40:10;8.10;99.90
6244;DHT22;3155;49.940;8.450;2022-10-01T02:42:44;8.10;99.90
6244;DHT22;3155;49.940;8.450;2022-10-01T02:45:13;8.10;99.90
6244;DHT22;3155;49.940;8.450;2022-10-01T02:47:44;8.10;99.90
6244;DHT22;3155;49.940;8.450;2022-10-01T02:50:13;8.20;99.90
6244;DHT22;3155;49.940;8.450;2022-10-01T02:53:06;8.20;99.90
6244;DHT22;3155;49.940;8.450;2022-10-01T02:55:38;8.20;99.90
6244;DHT22;3155;49.940;8.450;2022-10-01T02:58:07;8.20;99.90
6244;DHT22;3155;49.940;8.450;2022-10-01T03:00:34;8.20;99.90
6244;DHT22;3155;49.940;8.450;2022-10-01T03:03:01;8.30;99.90
6244;DHT22;3155;49.940;8.450;2022-10-01T03:05:28;8.30;99.90
6244;DHT22;3155;49.940;8.450;2022-10-01T03:07:55;8.30;99.90
6244;DHT22;3155;49.940;8.450;2022-10-01T03:10:21;8.30;99.90
6244;DHT22;3155;49.940;8.450;2022-10-01T03:12:48;8.40;99.90
6244;DHT22;3155;49.940;8.450;2022-10-01T03:15:17;8.40;99.90
6244;DHT22;3155;49.940;8.450;2022-10-01T03:17:45;8.40;99.90
6244;DHT22;3155;49.940;8.450;2022-10-01T03:20:12;8.50;99.90
6244;DHT22;3155;49.940;8.450;2022-10-01T03:22:38;8.50;99.90
6244;DHT22;3155;49.940;8.450;2022-10-01T03:25:08;8.60;99.90
6244;DHT22;3155;49.940;8.450;2022-10-01T03:27:35;8.60;99.90
6244;DHT22;3155;49.940;8.450;2022-10-01T03:30:03;8.70;99.90
6244;DHT22;3155;49.940;8.450;2022-10-01T03:32:33;8.70;99.90
6244;DHT22;3155;49.940;8.450;2022-10-01T03:35:00;8.70;99.90
6244;DHT22;3155;49.940;8.450;2022-10-01T03:37:27;8.70;99.90
6244;DHT22;3155;49.940;8.450;2022-10-01T03:39:53;8.70;99.90
6244;DHT22;3155;49.940;8.450;2022-10-01T03:42:20;8.70;99.90
6244;DHT22;3155;49.940;8.450;2022-10-01T03:44:47;8.70;99.90
6244;DHT22;3155;49.940;8.450;2022-10-01T03:47:14;8.70;99.90
6244;DHT22;3155;49.940;8.450;2022-10-01T03:49:40;8.70;99.90
6244;DHT22;3155;49.940;8.450;2022-10-01T03:52:07;8.70;99.90
6244;DHT22;3155;49.940;8.450;2022-10-01T03:54:34;8.60;99.90
6244;DHT22;3155;49.940;8.450;2022-10-01T03:57:00;8.60;99.90
6244;DHT22;3155;49.940;8.450;2022-10-01T03:59:27;8.50;99.90
6244;DHT22;3155;49.940;8.450;2022-10-01T04:01:55;8.50;99.90
6244;DHT22;3155;49.940;8.450;2022-10-01T04:04:22;8.50;99.90
6244;DHT22;3155;49.940;8.450;2022-10-01T04:06:50;8.50;99.90
6244;DHT22;3155;49.940;8.450;2022-10-01T04:09:17;8.40;99.90
6244;DHT22;3155;49.940;8.450;2022-10-01T04:11:44;8.50;99.90
6244;DHT22;3155;49.940;8.450;2022-10-01T04:14:10;8.40;99.90
6244;DHT22;3155;49.940;8.450;2022-10-01T04:16:43;8.50;99.90
6244;DHT22;3155;49.940;8.450;2022-10-01T04:19:13;8.50;99.90
6244;DHT22;3155;49.940;8.450;2022-10-01T04:21:40;8.50;99.90
6244;DHT22;3155;49.940;8.450;2022-10-01T04:24:07;8.50;99.90
6244;DHT22;3155;49.940;8.450;2022-10-01T04:26:33;8.50;99.90
6244;DHT22;3155;49.940;8.450;2022-10-01T04:29:00;8.50;99.90
6244;DHT22;3155;49.940;8.450;2022-10-01T04:31:27;8.50;99.90
6244;DHT22;3155;49.940;8.450;2022-10-01T04:34:03;8.50;99.90
6244;DHT22;3155;49.940;8.450;2022-10-01T04:36:36;8.50;99.90
6244;DHT22;3155;49.940;8.450;2022-10-01T04:39:03;8.50;99.90
6244;DHT22;3155;49.940;8.450;2022-10-01T04:41:30;8.50;99.90
6244;DHT22;3155;49.940;8.450;2022-10-01T04:44:00;8.50;99.90
6244;DHT22;3155;49.940;8.450;2022-10-01T04:46:30;8.50;99.90
6244;DHT22;3155;49.940;8.450;2022-10-01T04:48:57;8.60;99.90
6244;DHT22;3155;49.940;8.450;2022-10-01T04:51:24;8.50;99.90
6244;DHT22;3155;49.940;8.450;2022-10-01T04:53:51;8.60;99.90
6244;DHT22;3155;49.940;8.450;2022-10-01T04:56:17;8.60;99.90
6244;DHT22;3155;49.940;8.450;2022-10-01T04:58:47;8.60;99.90
6244;DHT22;3155;49.940;8.450;2022-10-01T05:01:14;8.60;99.90
6244;DHT22;3155;49.940;8.450;2022-10-01T05:03:41;8.60;99.90
6244;DHT22;3155;49.940;8.450;2022-10-01T05:06:08;8.60;99.90
6244;DHT22;3155;49.940;8.450;2022-10-01T05:08:34;8.60;99.90
6244;DHT22;3155;49.940;8.450;2022-10-01T05:11:02;8.60;99.90
6244;DHT22;3155;49.940;8.450;2022-10-01T05:13:29;8.60;99.90
6244;DHT22;3155;49.940;8.450;2022-10-01T05:15:57;8.60;99.90
6244;DHT22;3155;49.940;8.450;2022-10-01T05:18:24;8.60;99.90
6244;DHT22;3155;49.940;8.450;2022-10-01T05:20:54;8.60;99.90
6244;DHT22;3155;49.940;8.450;2022-10-01T05:23:20;8.60;99.90
6244;DHT22;3155;49.940;8.450;2022-10-01T05:26:01;8.60;99.90
6244;DHT22;3155;49.940;8.450;2022-10-01T05:28:31;8.60;99.90
6244;DHT22;3155;49.940;8.450;2022-10-01T05:30:59;8.60;99.90
6244;DHT22;3155;49.940;8.450;2022-10-01T05:33:26;8.60;99.90
6244;DHT22;3155;49.940;8.450;2022-10-01T05:35:53;8.60;99.90
6244;DHT22;3155;49.940;8.450;2022-10-01T05:38:20;8.60;99.90
6244;DHT22;3155;49.940;8.450;2022-10-01T05:40:47;8.60;99.90
6244;DHT22;3155;49.940;8.450;2022-10-01T05:43:14;8.60;99.90
6244;DHT22;3155;49.940;8.450;2022-10-01T05:45:41;8.60;99.90
6244;DHT22;3155;49.940;8.450;2022-10-01T05:48:08;8.70;99.90
6244;DHT22;3155;49.940;8.450;2022-10-01T05:50:39;8.60;99.90
6244;DHT22;3155;49.940;8.450;2022-10-01T05:53:10;8.70;99.90
6244;DHT22;3155;49.940;8.450;2022-10-01T05:55:37;8.70;99.90
6244;DHT22;3155;49.940;8.450;2022-10-01T05:58:09;8.70;99.90
6244;DHT22;3155;49.940;8.450;2022-10-01T06:00:37;8.70;99.90
6244;DHT22;3155;49.940;8.450;2022-10-01T06:03:05;8.70;99.90
6244;DHT22;3155;49.940;8.450;2022-10-01T06:05:33;8.70;99.90
6244;DHT22;3155;49.940;8.450;2022-10-01T06:08:03;8.70;99.90
6244;DHT22;3155;49.940;8.450;2022-10-01T06:10:30;8.70;99.90
6244;DHT22;3155;49.940;8.450;2022-10-01T06:13:00;8.80;99.90
6244;DHT22;3155;49.940;8.450;2022-10-01T06:15:28;8.70;99.90
6244;DHT22;3155;49.940;8.450;2022-10-01T06:18:00;8.80;99.90
6244;DHT22;3155;49.940;8.450;2022-10-01T06:20:27;8.70;99.90
6244;DHT22;3155;49.940;8.450;2022-10-01T06:22:55;8.80;99.90
6244;DHT22;3155;49.940;8.450;2022-10-01T06:25:24;8.80;99.90
6244;DHT22;3155;49.940;8.450;2022-10-01T06:27:55;8.80;99.90
6244;DHT22;3155;49.940;8.450;2022-10-01T06:30:24;8.80;99.90
6244;DHT22;3155;49.940;8.450;2022-10-01T06:33:07;8.80;99.90
6244;DHT22;3155;49.940;8.450;2022-10-01T06:35:38;8.80;99.90
6244;DHT22;3155;49.940;8.450;2022-10-01T06:38:08;8.80;99.90
6244;DHT22;3155;49.940;8.450;2022-10-01T06:40:38;8.90;99.90
6244;DHT22;3155;49.940;8.450;2022-10-01T06:43:05;8.90;99.90
6244;DHT22;3155;49.940;8.450;2022-10-01T06:45:39;8.90;99.90
6244;DHT22;3155;49.940;8.450;2022-10-01T06:48:12;8.90;99.90
6244;DHT22;3155;49.940;8.450;2022-10-01T06:50:40;8.90;99.90
6244;DHT22;3155;49.940;8.450;2022-10-01T06:53:07;8.90;99.90
6244;DHT22;3155;49.940;8.450;2022-10-01T06:55:35;8.90;99.90
6244;DHT22;3155;49.940;8.450;2022-10-01T06:58:07;9.00;99.90
6244;DHT22;3155;49.940;8.450;2022-10-01T07:00:35;8.90;99.90
6244;DHT22;3155;49.940;8.450;2022-10-01T07:03:05;9.00;99.90
6244;DHT22;3155;49.940;8.450;2022-10-01T07:05:37;9.00;99.90
6244;DHT22;3155;49.940;8.450;2022-10-01T07:08:05;9.00;99.90
6244;DHT22;3155;49.940;8.450;2022-10-01T07:10:32;9.00;99.90
6244;DHT22;3155;49.940;8.450;2022-10-01T07:13:10;9.00;99.90
6244;DHT22;3155;49.940;8.450;2022-10-01T07:15:37;9.00;99.90
6244;DHT22;3155;49.940;8.450;2022-10-01T07:18:05;9.00;99.90
6244;DHT22;3155;49.940;8.450;2022-10-01T07:20:32;9.00;99.90
6244;DHT22;3155;49.940;8.450;2022-10-01T07:23:01;9.00;99.90
6244;DHT22;3155;49.940;8.450;2022-10-01T07:25:30;9.00;99.90
6244;DHT22;3155;49.940;8.450;2022-10-01T07:28:03;9.00;99.90
6244;DHT22;3155;49.940;8.450;2022-10-01T07:30:30;9.00;99.90
6244;DHT22;3155;49.940;8.450;2022-10-01T07:32:57;9.00;99.90
6244;DHT22;3155;49.940;8.450;2022-10-01T07:35:24;9.00;99.90
6244;DHT22;3155;49.940;8.450;2022-10-01T07:37:53;9.00;99.90
6244;DHT22;3155;49.940;8.450;2022-10-01T07:40:21;9.00;99.90
6244;DHT22;3155;49.940;8.450;2022-10-01T07:43:00;9.00;99.90
6244;DHT22;3155;49.940;8.450;2022-10-01T07:45:27;9.00;99.90
6244;DHT22;3155;49.940;8.450;2022-10-01T07:47:57;9.00;99.90
6244;DHT22;3155;49.940;8.450;2022-10-01T07:50:26;9.10;99.90
6244;DHT22;3155;49.940;8.450;2022-10-01T07:52:54;9.10;99.90
6244;DHT22;3155;49.940;8.450;2022-10-01T07:55:23;9.10;99.90
6244;DHT22;3155;49.940;8.450;2022-10-01T07:57:53;9.10;99.90
6244;DHT22;3155;49.940;8.450;2022-10-01T08:00:22;9.10;99.90
6244;DHT22;3155;49.940;8.450;2022-10-01T08:02:53;9.10;99.90
6244;DHT22;3155;49.940;8.450;2022-10-01T08:05:30;9.10;99.90
6244;DHT22;3155;49.940;8.450;2022-10-01T08:08:01;9.10;99.90
6244;DHT22;3155;49.940;8.450;2022-10-01T08:10:29;9.20;99.90
6244;DHT22;3155;49.940;8.450;2022-10-01T08:13:07;9.20;99.90
6244;DHT22;3155;49.940;8.450;2022-10-01T08:15:43;9.20;99.90
6244;DHT22;3155;49.940;8.450;2022-10-01T08:18:11;9.20;99.90
6244;DHT22;3155;49.940;8.450;2022-10-01T08:20:38;9.20;99.90
6244;DHT22;3155;49.940;8.450;2022-10-01T08:23:07;9.20;99.90
6244;DHT22;3155;49.940;8.450;2022-10-01T08:25:39;9.20;99.90
6244;DHT22;3155;49.940;8.450;2022-10-01T08:28:07;9.20;99.90
6244;DHT22;3155;49.940;8.450;2022-10-01T08:30:36;9.20;99.90
6244;DHT22;3155;49.940;8.450;2022-10-01T08:33:05;9.20;99.90
6244;DHT22;3155;49.940;8.450;2022-10-01T08:35:39;9.20;99.90
6244;DHT22;3155;49.940;8.450;2022-10-01T08:38:06;9.30;99.90
6244;DHT22;3155;49.940;8.450;2022-10-01T08:40:35;9.30;99.90
6244;DHT22;3155;49.940;8.450;2022-10-01T08:43:05;9.30;99.90
6244;DHT22;3155;49.940;8.450;2022-10-01T08:45:49;9.30;99.90
6244;DHT22;3155;49.940;8.450;2022-10-01T08:50:56;9.40;99.90
6244;DHT22;3155;49.940;8.450;2022-10-01T08:53:47;9.60;99.90
6244;DHT22;3155;49.940;8.450;2022-10-01T08:56:21;9.60;99.90
6244;DHT22;3155;49.940;8.450;2022-10-01T08:58:57;9.70;99.90
6244;DHT22;3155;49.940;8.450;2022-10-01T09:01:25;9.80;99.90
6244;DHT22;3155;49.940;8.450;2022-10-01T09:03:55;9.80;99.90
6244;DHT22;3155;49.940;8.450;2022-10-01T09:06:24;9.70;99.90
6244;DHT22;3155;49.940;8.450;2022-10-01T09:11:45;9.70;99.90
6244;DHT22;3155;49.940;8.450;2022-10-01T09:22:46;9.70;99.90
6244;DHT22;3155;49.940;8.450;2022-10-01T09:25:22;9.70;99.90
6244;DHT22;3155;49.940;8.450;2022-10-01T09:27:51;9.70;99.90
6244;DHT22;3155;49.940;8.450;2022-10-01T09:30:23;9.80;99.90
6244;DHT22;3155;49.940;8.450;2022-10-01T09:33:03;9.80;99.90
6244;DHT22;3155;49.940;8.450;2022-10-01T09:35:45;9.80;99.90
6244;DHT22;3155;49.940;8.450;2022-10-01T09:40:55;9.90;99.90
6244;DHT22;3155;49.940;8.450;2022-10-01T09:43:24;9.90;99.90
6244;DHT22;3155;49.940;8.450;2022-10-01T09:45:51;9.90;99.90
6244;DHT22;3155;49.940;8.450;2022-10-01T09:48:29;9.80;99.90
6244;DHT22;3155;49.940;8.450;2022-10-01T09:51:56;9.90;99.90
6244;DHT22;3155;49.940;8.450;2022-10-01T09:56:39;9.90;99.90
6244;DHT22;3155;49.940;8.450;2022-10-01T09:59:12;9.90;99.90
6244;DHT22;3155;49.940;8.450;2022-10-01T10:01:53;9.90;99.90
6244;DHT22;3155;49.940;8.450;2022-10-01T10:04:24;10.00;99.90
6244;DHT22;3155;49.940;8.450;2022-10-01T10:07:01;10.00;99.90
6244;DHT22;3155;49.940;8.450;2022-10-01T10:09:31;10.00;99.90
6244;DHT22;3155;49.940;8.450;2022-10-01T10:11:59;10.00;99.90
6244;DHT22;3155;49.940;8.450;2022-10-01T10:17:13;10.10;99.90
6244;DHT22;3155;49.940;8.450;2022-10-01T10:19:50;10.30;99.90
6244;DHT22;3155;49.940;8.450;2022-10-01T10:22:25;10.40;99.90
6244;DHT22;3155;49.940;8.450;2022-10-01T10:24:53;10.60;99.90
6244;DHT22;3155;49.940;8.450;2022-10-01T10:27:29;10.70;99.90
6244;DHT22;3155;49.940;8.450;2022-10-01T10:30:12;10.70;99.90
6244;DHT22;3155;49.940;8.450;2022-10-01T10:32:39;10.90;99.90
6244;DHT22;3155;49.940;8.450;2022-10-01T10:35:14;11.10;99.90
6244;DHT22;3155;49.940;8.450;2022-10-01T10:37:48;11.10;99.90
6244;DHT22;3155;49.940;8.450;2022-10-01T10:40:19;11.10;99.90
6244;DHT22;3155;49.940;8.450;2022-10-01T10:42:54;11.00;99.90
6244;DHT22;3155;49.940;8.450;2022-10-01T10:45:35;11.00;99.90
6244;DHT22;3155;49.940;8.450;2022-10-01T10:48:06;11.00;99.90
6244;DHT22;3155;49.940;8.450;2022-10-01T10:50:39;11.00;99.90
6244;DHT22;3155;49.940;8.450;2022-10-01T10:53:24;11.10;99.90
6244;DHT22;3155;49.940;8.450;2022-10-01T10:56:04;11.00;99.90
6244;DHT22;3155;49.940;8.450;2022-10-01T10:58:35;11.10;99.90
6244;DHT22;3155;49.940;8.450;2022-10-01T11:01:08;11.00;99.90
6244;DHT22;3155;49.940;8.450;2022-10-01T11:03:40;11.00;99.90
6244;DHT22;3155;49.940;8.450;2022-10-01T11:06:12;11.00;99.90
6244;DHT22;3155;49.940;8.450;2022-10-01T11:08:41;11.00;99.90
6244;DHT22;3155;49.940;8.450;2022-10-01T11:26:00;11.40;99.90
6244;DHT22;3155;49.940;8.450;2022-10-01T11:28:43;11.60;99.90
6244;DHT22;3155;49.940;8.450;2022-10-01T11:37:08;12.70;99.90
6244;DHT22;3155;49.940;8.450;2022-10-01T11:39:42;13.20;99.90
6244;DHT22;3155;49.940;8.450;2022-10-01T11:42:14;13.60;99.90
6244;DHT22;3155;49.940;8.450;2022-10-01T11:44:47;13.70;99.90
6244;DHT22;3155;49.940;8.450;2022-10-01T11:49:54;14.00;99.90
6244;DHT22;3155;49.940;8.450;2022-10-01T11:52:25;14.40;99.90
6244;DHT22;3155;49.940;8.450;2022-10-01T12:01:38;14.80;99.90
6244;DHT22;3155;49.940;8.450;2022-10-01T12:15:28;14.50;99.90
6244;DHT22;3155;49.940;8.450;2022-10-01T12:18:10;14.40;99.90
6244;DHT22;3155;49.940;8.450;2022-10-01T12:20:43;14.30;99.90
6244;DHT22;3155;49.940;8.450;2022-10-01T12:23:15;14.40;99.90
6244;DHT22;3155;49.940;8.450;2022-10-01T12:28:52;15.50;99.90
6244;DHT22;3155;49.940;8.450;2022-10-01T12:31:34;16.30;99.90
6244;DHT22;3155;49.940;8.450;2022-10-01T12:45:44;18.10;99.90
6244;DHT22;3155;49.940;8.450;2022-10-01T12:54:03;15.50;99.90
6244;DHT22;3155;49.940;8.450;2022-10-01T12:56:48;15.20;99.90
6244;DHT22;3155;49.940;8.450;2022-10-01T13:02:36;15.00;99.90
6244;DHT22;3155;49.940;8.450;2022-10-01T13:13:32;17.20;99.90
6244;DHT22;3155;49.940;8.450;2022-10-01T13:16:34;17.70;99.90
6244;DHT22;3155;49.940;8.450;2022-10-01T13:24:49;18.60;99.90
6244;DHT22;3155;49.940;8.450;2022-10-01T13:27:58;18.70;99.90
6244;DHT22;3155;49.940;8.450;2022-10-01T13:30:34;19.10;99.90
6244;DHT22;3155;49.940;8.450;2022-10-01T13:33:21;19.40;99.90
6244;DHT22;3155;49.940;8.450;2022-10-01T13:36:15;19.60;99.90
6244;DHT22;3155;49.940;8.450;2022-10-01T13:38:45;19.60;99.90
6244;DHT22;3155;49.940;8.450;2022-10-01T13:41:32;20.00;99.90
6244;DHT22;3155;49.940;8.450;2022-10-01T13:47:03;20.00;99.90
6244;DHT22;3155;49.940;8.450;2022-10-01T13:49:33;20.00;99.90
6244;DHT22;3155;49.940;8.450;2022-10-01T13:52:01;20.10;99.90
6244;DHT22;3155;49.940;8.450;2022-10-01T13:54:38;20.60;99.90
6244;DHT22;3155;49.940;8.450;2022-10-01T13:57:29;19.50;99.90
6244;DHT22;3155;49.940;8.450;2022-10-01T14:00:21;18.90;99.90
6244;DHT22;3155;49.940;8.450;2022-10-01T14:05:38;17.80;99.90
6244;DHT22;3155;49.940;8.450;2022-10-01T14:11:16;17.70;99.90
6244;DHT22;3155;49.940;8.450;2022-10-01T14:14:11;17.80;99.90
6244;DHT22;3155;49.940;8.450;2022-10-01T14:16:58;18.10;99.90
6244;DHT22;3155;49.940;8.450;2022-10-01T14:19:26;18.10;99.90
6244;DHT22;3155;49.940;8.450;2022-10-01T14:24:48;17.60;99.90
6244;DHT22;3155;49.940;8.450;2022-10-01T14:27:36;17.80;99.90
6244;DHT22;3155;49.940;8.450;2022-10-01T14:38:40;18.90;99.90
6244;DHT22;3155;49.940;8.450;2022-10-01T14:41:22;19.40;99.90
6244;DHT22;3155;49.940;8.450;2022-10-01T14:43:49;19.70;99.90
6244;DHT22;3155;49.940;8.450;2022-10-01T14:46:17;19.70;99.90
6244;DHT22;3155;49.940;8.450;2022-10-01T14:48:44;19.20;99.90
6244;DHT22;3155;49.940;8.450;2022-10-01T14:51:27;18.40;99.90
6244;DHT22;3155;49.940;8.450;2022-10-01T14:53:57;17.70;99.90
6244;DHT22;3155;49.940;8.450;2022-10-01T14:56:26;17.30;99.90
6244;DHT22;3155;49.940;8.450;2022-10-01T14:59:00;16.90;99.90
6244;DHT22;3155;49.940;8.450;2022-10-01T15:01:31;16.50;99.90
6244;DHT22;3155;49.940;8.450;2022-10-01T15:03:58;16.40;99.90
6244;DHT22;3155;49.940;8.450;2022-10-01T15:06:26;16.20;99.90
6244;DHT22;3155;49.940;8.450;2022-10-01T15:09:12;16.20;99.90
6244;DHT22;3155;49.940;8.450;2022-10-01T15:11:41;16.20;99.90
6244;DHT22;3155;49.940;8.450;2022-10-01T15:14:15;16.40;99.90
6244;DHT22;3155;49.940;8.450;2022-10-01T15:16:43;16.40;99.90
6244;DHT22;3155;49.940;8.450;2022-10-01T15:19:22;16.40;99.90
6244;DHT22;3155;49.940;8.450;2022-10-01T15:21:56;16.30;99.90
6244;DHT22;3155;49.940;8.450;2022-10-01T15:24:36;16.40;99.90
6244;DHT22;3155;49.940;8.450;2022-10-01T15:27:07;16.30;99.90
6244;DHT22;3155;49.940;8.450;2022-10-01T15:29:36;16.20;99.90
6244;DHT22;3155;49.940;8.450;2022-10-01T15:32:04;16.10;99.90
6244;DHT22;3155;49.940;8.450;2022-10-01T15:34:34;16.00;99.90
6244;DHT22;3155;49.940;8.450;2022-10-01T15:37:02;15.90;99.90
6244;DHT22;3155;49.940;8.450;2022-10-01T15:39:40;15.90;99.90
6244;DHT22;3155;49.940;8.450;2022-10-01T15:42:23;15.70;99.90
6244;DHT22;3155;49.940;8.450;2022-10-01T15:47:38;15.70;99.90
6244;DHT22;3155;49.940;8.450;2022-10-01T15:55:41;17.00;99.90
6244;DHT22;3155;49.940;8.450;2022-10-01T16:03:38;16.00;99.90
6244;DHT22;3155;49.940;8.450;2022-10-01T16:06:15;15.90;99.90
6244;DHT22;3155;49.940;8.450;2022-10-01T16:09:05;15.70;99.90
6244;DHT22;3155;49.940;8.450;2022-10-01T16:12:00;15.40;99.90
6244;DHT22;3155;49.940;8.450;2022-10-01T16:14:37;15.20;99.90
6244;DHT22;3155;49.940;8.450;2022-10-01T16:19:47;14.90;99.90
6244;DHT22;3155;49.940;8.450;2022-10-01T16:22:33;14.80;99.90
6244;DHT22;3155;49.940;8.450;2022-10-01T16:27:57;14.60;99.90
6244;DHT22;3155;49.940;8.450;2022-10-01T16:30:26;14.50;99.90
6244;DHT22;3155;49.940;8.450;2022-10-01T16:32:54;14.40;99.90
6244;DHT22;3155;49.940;8.450;2022-10-01T16:35:32;14.40;99.90
6244;DHT22;3155;49.940;8.450;2022-10-01T16:38:02;14.40;99.90
6244;DHT22;3155;49.940;8.450;2022-10-01T16:40:36;14.30;99.90
6244;DHT22;3155;49.940;8.450;2022-10-01T16:43:05;14.40;99.90
6244;DHT22;3155;49.940;8.450;2022-10-01T16:45:37;14.40;99.90
6244;DHT22;3155;49.940;8.450;2022-10-01T16:48:14;14.40;99.90
6244;DHT22;3155;49.940;8.450;2022-10-01T16:50:42;14.30;99.90
6244;DHT22;3155;49.940;8.450;2022-10-01T16:53:16;14.30;99.90
6244;DHT22;3155;49.940;8.450;2022-10-01T16:55:44;14.20;99.90
6244;DHT22;3155;49.940;8.450;2022-10-01T16:58:12;14.20;99.90
6244;DHT22;3155;49.940;8.450;2022-10-01T17:00:39;14.10;99.90
6244;DHT22;3155;49.940;8.450;2022-10-01T17:03:08;14.00;99.90
6244;DHT22;3155;49.940;8.450;2022-10-01T17:05:37;14.00;99.90
6244;DHT22;3155;49.940;8.450;2022-10-01T17:08:04;13.90;99.90
6244;DHT22;3155;49.940;8.450;2022-10-01T17:10:39;13.90;99.90
6244;DHT22;3155;49.940;8.450;2022-10-01T17:13:08;13.80;99.90
6244;DHT22;3155;49.940;8.450;2022-10-01T17:15:35;13.80;99.90
6244;DHT22;3155;49.940;8.450;2022-10-01T17:18:02;13.80;99.90
6244;DHT22;3155;49.940;8.450;2022-10-01T17:20:29;13.80;99.90
6244;DHT22;3155;49.940;8.450;2022-10-01T17:22:57;13.70;99.90
6244;DHT22;3155;49.940;8.450;2022-10-01T17:25:27;13.70;99.90
6244;DHT22;3155;49.940;8.450;2022-10-01T17:27:58;13.70;99.90
6244;DHT22;3155;49.940;8.450;2022-10-01T17:30:27;13.70;99.90
6244;DHT22;3155;49.940;8.450;2022-10-01T17:32:56;13.60;99.90
6244;DHT22;3155;49.940;8.450;2022-10-01T17:35:29;13.60;99.90
6244;DHT22;3155;49.940;8.450;2022-10-01T17:37:56;13.50;99.90
6244;DHT22;3155;49.940;8.450;2022-10-01T17:40:24;13.60;99.90
6244;DHT22;3155;49.940;8.450;2022-10-01T17:42:51;13.50;99.90
6244;DHT22;3155;49.940;8.450;2022-10-01T17:45:17;13.60;99.90
6244;DHT22;3155;49.940;8.450;2022-10-01T17:47:46;13.50;99.90
6244;DHT22;3155;49.940;8.450;2022-10-01T17:50:17;13.50;99.90
6244;DHT22;3155;49.940;8.450;2022-10-01T17:52:47;13.40;99.90
6244;DHT22;3155;49.940;8.450;2022-10-01T17:55:14;13.40;99.90
6244;DHT22;3155;49.940;8.450;2022-10-01T17:57:41;13.30;99.90
6244;DHT22;3155;49.940;8.450;2022-10-01T18:00:09;13.30;99.90
6244;DHT22;3155;49.940;8.450;2022-10-01T18:02:35;13.20;99.90
6244;DHT22;3155;49.940;8.450;2022-10-01T18:05:09;13.20;99.90
6244;DHT22;3155;49.940;8.450;2022-10-01T18:07:38;13.30;99.90
6244;DHT22;3155;49.940;8.450;2022-10-01T18:10:07;13.40;99.90
6244;DHT22;3155;49.940;8.450;2022-10-01T18:12:34;13.50;99.90
6244;DHT22;3155;49.940;8.450;2022-10-01T18:15:03;13.60;99.90
6244;DHT22;3155;49.940;8.450;2022-10-01T18:17:33;13.60;99.90
6244;DHT22;3155;49.940;8.450;2022-10-01T18:20:04;13.60;99.90
6244;DHT22;3155;49.940;8.450;2022-10-01T18:22:33;13.60;99.90
6244;DHT22;3155;49.940;8.450;2022-10-01T18:25:04;13.70;99.90
6244;DHT22;3155;49.940;8.450;2022-10-01T18:27:31;13.70;99.90
6244;DHT22;3155;49.940;8.450;2022-10-01T18:29:58;13.60;99.90
6244;DHT22;3155;49.940;8.450;2022-10-01T18:32:30;13.60;99.90
6244;DHT22;3155;49.940;8.450;2022-10-01T18:34:59;13.60;99.90
6244;DHT22;3155;49.940;8.450;2022-10-01T18:37:33;13.50;99.90
6244;DHT22;3155;49.940;8.450;2022-10-01T18:40:12;13.50;99.90
6244;DHT22;3155;49.940;8.450;2022-10-01T18:42:58;13.50;99.90
6244;DHT22;3155;49.940;8.450;2022-10-01T18:50:59;13.60;99.90
6244;DHT22;3155;49.940;8.450;2022-10-01T18:54:13;13.60;99.90
6244;DHT22;3155;49.940;8.450;2022-10-01T19:02:45;13.60;99.90
6244;DHT22;3155;49.940;8.450;2022-10-01T19:08:07;13.50;99.90
6244;DHT22;3155;49.940;8.450;2022-10-01T19:10:57;13.50;99.90
6244;DHT22;3155;49.940;8.450;2022-10-01T19:17:16;13.30;99.90
6244;DHT22;3155;49.940;8.450;2022-10-01T19:20:09;13.20;99.90
6244;DHT22;3155;49.940;8.450;2022-10-01T19:25:57;13.20;99.90
6244;DHT22;3155;49.940;8.450;2022-10-01T19:31:50;13.10;99.90
6244;DHT22;3155;49.940;8.450;2022-10-01T19:34:36;13.00;99.90
6244;DHT22;3155;49.940;8.450;2022-10-01T19:39:38;13.00;99.90
6244;DHT22;3155;49.940;8.450;2022-10-01T19:42:23;13.00;99.90
6244;DHT22;3155;49.940;8.450;2022-10-01T19:44:56;13.00;99.90
6244;DHT22;3155;49.940;8.450;2022-10-01T19:47:30;13.00;99.90
6244;DHT22;3155;49.940;8.450;2022-10-01T19:50:32;13.00;99.90